createdAt,value
2019-02-03T00:00:28.826Z,44.67
2019-02-03T00:05:32.274Z,46.00
2019-02-03T00:10:35.668Z,44.03
2019-02-03T00:15:38.978Z,43.03
2019-02-03T00:20:42.428Z,42.97
2019-02-03T00:25:45.943Z,40.23
2019-02-03T00:30:49.021Z,38.90
2019-02-03T00:35:52.699Z,40.07
2019-02-03T00:40:56.439Z,41.37
2019-02-03T00:46:00.245Z,41.73
2019-02-03T00:51:03.382Z,42.37
2019-02-03T00:56:06.491Z,45.67
2019-02-03T01:01:09.898Z,41.73
2019-02-03T01:06:13.441Z,44.23
2019-02-03T01:11:16.843Z,44.67
2019-02-03T01:16:19.914Z,42.50
2019-02-03T01:21:23.026Z,44.40
2019-02-03T01:26:26.438Z,44.20
2019-02-03T01:31:29.854Z,43.23
2019-02-03T01:36:33.563Z,43.00
2019-02-03T01:41:37.248Z,42.67
2019-02-03T01:46:40.327Z,41.80
2019-02-03T01:51:43.736Z,42.33
2019-02-03T01:56:46.809Z,42.03
2019-02-03T02:01:50.201Z,42.73
2019-02-03T02:06:53.566Z,42.73
2019-02-03T02:11:56.645Z,43.60
2019-02-03T02:17:00.314Z,43.20
2019-02-03T02:22:03.695Z,42.70
2019-02-03T02:27:07.149Z,41.50
2019-02-03T02:32:10.527Z,43.73
2019-02-03T02:37:14.233Z,43.63
2019-02-03T02:42:17.303Z,40.80
2019-02-03T02:47:20.962Z,42.63
2019-02-03T02:52:24.423Z,42.67
2019-02-03T02:57:27.578Z,42.87
2019-02-03T03:02:30.653Z,41.37
2019-02-03T03:07:35.227Z,41.37
2019-02-03T03:12:38.295Z,41.73
2019-02-03T03:17:41.366Z,42.07
2019-02-03T03:22:45.108Z,43.47
2019-02-03T03:27:48.945Z,45.17
2019-02-03T03:32:52.029Z,45.97
2019-02-03T03:37:55.424Z,46.70
2019-02-03T03:42:58.818Z,47.40
2019-02-03T03:48:01.910Z,49.20
2019-02-03T03:53:04.973Z,47.20
2019-02-03T03:58:08.674Z,45.70
2019-02-03T04:03:12.389Z,42.13
2019-02-03T04:08:15.744Z,41.77
2019-02-03T04:13:19.197Z,41.33
2019-02-03T04:18:22.557Z,42.10
2019-02-03T04:23:25.688Z,42.13
2019-02-03T04:28:29.073Z,43.67
2019-02-03T04:33:32.773Z,45.43
2019-02-03T04:38:35.843Z,47.27
2019-02-03T04:43:39.256Z,46.43
2019-02-03T04:48:42.634Z,46.10
2019-02-03T04:53:45.736Z,52.60
2019-02-03T04:58:48.856Z,52.50
2019-02-03T05:03:52.555Z,55.47
2019-02-03T05:08:56.276Z,57.47
2019-02-03T05:13:59.987Z,56.53
2019-02-03T05:19:03.427Z,56.63
2019-02-03T05:24:06.856Z,56.40
2019-02-03T05:29:09.930Z,58.10
2019-02-03T05:34:13.345Z,56.97
2019-02-03T05:39:25.103Z,58.53
2019-02-03T05:44:22.127Z,58.07
2019-02-03T05:49:25.215Z,57.57
2019-02-03T05:54:28.860Z,57.80
2019-02-03T05:59:32.280Z,58.53
2019-02-03T06:04:35.360Z,56.07
2019-02-03T06:09:38.771Z,59.43
2019-02-03T06:14:42.432Z,56.77
2019-02-03T06:19:45.534Z,56.27
2019-02-03T06:24:51.754Z,56.30
2019-02-03T06:29:54.312Z,54.70
2019-02-03T06:34:58.416Z,54.53
2019-02-03T06:40:02.136Z,52.67
2019-02-03T06:45:08.861Z,52.57
2019-02-03T06:50:11.987Z,55.27
2019-02-03T06:55:15.368Z,53.50
2019-02-03T07:00:20.401Z,52.67
2019-02-03T07:05:23.731Z,53.87
2019-02-03T07:10:26.818Z,55.30
2019-02-03T07:15:30.545Z,52.67
2019-02-03T07:20:33.955Z,53.80
2019-02-03T07:25:37.392Z,53.67
2019-02-03T07:30:40.466Z,52.00
2019-02-03T07:35:43.871Z,54.70
2019-02-03T07:40:46.955Z,55.80
2019-02-03T07:45:50.645Z,56.13
2019-02-03T07:50:54.056Z,56.97
2019-02-03T07:55:57.762Z,55.20
2019-02-03T08:01:00.902Z,55.30
2019-02-03T08:06:04.582Z,52.33
2019-02-03T08:11:07.919Z,52.10
2019-02-03T08:16:11.335Z,46.30
2019-02-03T08:21:21.234Z,47.87
2019-02-03T08:26:24.654Z,43.47
2019-02-03T08:31:28.851Z,43.93
2019-02-03T08:36:31.999Z,42.73
2019-02-03T08:41:35.079Z,41.33
2019-02-03T08:46:38.473Z,40.03
2019-02-03T08:51:41.881Z,37.33
2019-02-03T08:56:45.301Z,36.80
2019-02-03T09:01:48.379Z,33.90
2019-02-03T09:06:51.458Z,33.87
2019-02-03T09:11:54.555Z,31.47
2019-02-03T09:16:57.949Z,30.27
2019-02-03T09:22:01.659Z,30.03
2019-02-03T09:27:06.538Z,29.00
2019-02-03T09:32:11.321Z,28.17
2019-02-03T09:37:14.875Z,26.03
2019-02-03T09:42:18.474Z,24.90
2019-02-03T09:47:21.572Z,24.30
2019-02-03T09:52:26.758Z,25.03
2019-02-03T09:57:30.493Z,24.73
2019-02-03T10:02:34.187Z,24.90
2019-02-03T10:07:37.615Z,23.98
2019-02-03T10:12:41.028Z,21.57
2019-02-03T10:17:44.127Z,20.83
2019-02-03T10:22:47.601Z,21.20
2019-02-03T10:27:50.772Z,20.07
2019-02-03T10:32:54.224Z,19.33
2019-02-03T10:37:57.903Z,17.03
2019-02-03T10:43:01.539Z,17.97
2019-02-03T10:48:06.148Z,18.13
2019-02-03T10:53:10.804Z,16.27
2019-02-03T10:58:14.518Z,16.73
2019-02-03T11:03:18.239Z,17.20
2019-02-03T11:08:21.686Z,18.17
2019-02-03T11:13:26.002Z,19.53
2019-02-03T11:18:29.347Z,18.83
2019-02-03T11:23:33.094Z,18.43
2019-02-03T11:28:36.869Z,20.77
2019-02-03T11:33:40.273Z,21.73
2019-02-03T11:38:44.091Z,20.57
2019-02-03T11:43:47.433Z,21.70
2019-02-03T11:48:50.883Z,19.20
2019-02-03T11:53:54.344Z,19.07
2019-02-03T11:58:57.442Z,18.00
2019-02-03T12:04:00.564Z,17.70
2019-02-03T12:09:05.567Z,16.13
2019-02-03T12:14:08.943Z,15.47
2019-02-03T12:19:12.627Z,13.63
2019-02-03T12:24:16.093Z,12.30
2019-02-03T12:29:19.569Z,13.03
2019-02-03T12:34:22.910Z,10.97
2019-02-03T12:39:29.073Z,8.20
2019-02-03T12:44:32.168Z,7.70
2019-02-03T12:49:35.991Z,6.57
2019-02-03T12:54:40.019Z,6.93
2019-02-03T12:59:43.106Z,5.90
2019-02-03T13:04:46.218Z,6.00
2019-02-03T13:09:49.665Z,5.30
2019-02-03T13:14:53.079Z,5.20
2019-02-03T13:19:56.517Z,4.73
2019-02-03T13:24:59.604Z,4.40
2019-02-03T13:30:04.106Z,4.17
2019-02-03T13:35:07.866Z,4.10
2019-02-03T13:40:11.622Z,4.20
2019-02-03T13:45:21.031Z,3.73
2019-02-03T13:50:24.271Z,4.30
2019-02-03T13:55:28.981Z,3.67
2019-02-03T14:00:33.450Z,3.70
2019-02-03T14:05:36.567Z,3.67
2019-02-03T14:10:39.911Z,3.67
2019-02-03T14:15:43.270Z,3.50
2019-02-03T14:20:46.757Z,3.97
2019-02-03T14:25:52.604Z,3.70
2019-02-03T14:30:55.800Z,3.30
2019-02-03T14:35:59.206Z,3.57
2019-02-03T14:41:02.802Z,3.40
2019-02-03T14:46:06.536Z,3.67
2019-02-03T14:51:09.792Z,3.80
2019-02-03T14:56:13.208Z,3.60
2019-02-03T15:01:16.304Z,3.60
2019-02-03T15:06:20.067Z,3.97
2019-02-03T15:11:23.806Z,5.95
2019-02-03T15:16:27.237Z,7.70
2019-02-03T15:21:30.658Z,11.87
2019-02-03T15:26:34.046Z,6.27
2019-02-03T15:31:37.466Z,6.40
2019-02-03T15:36:40.580Z,6.55
2019-02-03T15:41:43.942Z,7.10
2019-02-03T15:46:47.026Z,7.07
2019-02-03T15:51:50.402Z,6.60
2019-02-03T15:56:54.118Z,6.17
2019-02-03T16:01:57.546Z,5.50
2019-02-03T16:07:00.653Z,5.20
2019-02-03T16:12:03.814Z,6.47
2019-02-03T16:17:07.156Z,6.07
2019-02-03T16:22:10.808Z,6.17
2019-02-03T16:27:15.094Z,7.97
2019-02-03T16:32:18.395Z,6.50
2019-02-03T16:37:22.158Z,5.87
2019-02-03T16:42:25.635Z,5.80
2019-02-03T16:47:28.990Z,6.27
2019-02-03T16:52:32.163Z,6.77
2019-02-03T16:57:36.211Z,6.33
2019-02-03T17:02:39.306Z,5.70
2019-02-03T17:07:42.477Z,5.90
2019-02-03T17:12:46.097Z,5.70
2019-02-03T17:17:49.201Z,5.77
2019-02-03T17:22:52.814Z,5.80
2019-02-03T17:27:55.919Z,5.77
2019-02-03T17:32:59.047Z,6.10
2019-02-03T17:38:02.237Z,5.87
2019-02-03T17:48:51.463Z,6.50
2019-02-03T17:53:54.778Z,6.17
2019-02-03T17:58:58.338Z,6.03
2019-02-03T18:04:02.116Z,6.13
2019-02-03T18:09:07.950Z,6.27
2019-02-03T18:14:11.879Z,6.90
2019-02-03T18:19:15.827Z,6.63
2019-02-03T18:24:19.340Z,6.90
2019-02-03T18:29:22.802Z,5.97
2019-02-03T18:34:26.374Z,6.67
2019-02-03T18:39:29.743Z,6.67
2019-02-03T18:44:35.997Z,6.40
2019-02-03T18:49:38.486Z,6.03
2019-02-03T18:54:41.802Z,7.57
2019-02-03T18:59:45.443Z,8.70
2019-02-03T19:04:48.947Z,9.97
2019-02-03T19:09:52.842Z,9.70
2019-02-03T19:14:56.468Z,11.10
2019-02-03T19:20:00.000Z,12.50
2019-02-03T19:25:04.416Z,12.53
2019-02-03T19:30:09.426Z,12.90
2019-02-03T19:35:14.212Z,13.33
2019-02-03T19:40:21.411Z,12.33
2019-02-03T19:45:27.382Z,12.80
2019-02-03T19:50:31.936Z,12.40
2019-02-03T19:55:35.260Z,12.67
2019-02-03T20:00:39.987Z,13.07
2019-02-03T20:05:43.571Z,13.47
2019-02-03T20:10:47.423Z,13.40
2019-02-03T20:15:50.934Z,12.73
2019-02-03T20:20:54.497Z,12.07
2019-02-03T20:25:57.714Z,10.93
2019-02-03T20:31:00.904Z,11.33
2019-02-03T20:36:06.362Z,10.97
2019-02-03T20:41:10.235Z,11.33
2019-02-03T20:46:15.538Z,10.97
2019-02-03T20:51:19.038Z,10.67
2019-02-03T20:56:22.196Z,11.37
2019-02-03T21:01:25.686Z,10.70
2019-02-03T21:06:29.195Z,10.47
2019-02-03T21:11:33.311Z,10.17
2019-02-03T21:16:37.089Z,10.30
2019-02-03T21:21:40.258Z,10.48
2019-02-03T21:26:43.652Z,10.20
2019-02-03T21:31:47.415Z,9.43
2019-02-03T21:36:50.916Z,9.80
2019-02-03T21:41:54.452Z,9.67
2019-02-03T21:46:58.542Z,9.93
2019-02-03T21:52:02.015Z,10.17
2019-02-03T21:57:05.639Z,9.93
2019-02-03T22:02:09.109Z,9.93
2019-02-03T22:07:12.822Z,9.57
2019-02-03T22:12:16.271Z,10.13
2019-02-03T22:17:20.106Z,10.57
2019-02-03T22:22:24.091Z,9.77
2019-02-03T22:27:27.617Z,10.20
2019-02-03T22:32:30.755Z,9.87
2019-02-03T22:37:34.194Z,10.33
2019-02-03T22:42:37.329Z,10.18
2019-02-03T22:47:40.450Z,11.57
2019-02-03T22:52:43.571Z,10.80
2019-02-03T22:57:47.431Z,11.37
2019-02-03T23:02:51.421Z,12.10
2019-02-03T23:07:55.234Z,12.70
2019-02-03T23:12:58.924Z,13.17
2019-02-03T23:18:02.674Z,12.53
2019-02-03T23:23:05.914Z,13.37
2019-02-03T23:28:09.317Z,13.03
2019-02-03T23:33:12.482Z,13.37
2019-02-03T23:38:15.650Z,12.40
2019-02-03T23:43:19.477Z,13.93
2019-02-03T23:48:22.970Z,12.57
2019-02-03T23:53:26.438Z,13.13
2019-02-03T23:58:30.510Z,13.77
